Port Neches, Texas
Current Conditions -  °F | °C
As of 10:53 AM on Friday 19 Dec 2014 (Local Time) from KBPT Reporting Station
Light Rain Light Rain  
Wind Chill: 59°   Ceiling: 4000
Heat Index: 59°   Visibility: 6mi
Dew Point: 57°   Wind: 13mph
Humidity: 93%   Direction: 40°NE
Pressure: 30.06"   Gusts: NA
Location:  29.99°N, 93.96°W
Report Text: KBPT 191653Z 04011KT 6SM -RA BR FEW005 BKN040 OVC050 15/14 A3006 RMK AO2 SLP179 P0003 T01500139
Loading
Personal Weather Stations






























Interactive Weather Map New forecast layout! Learn more

10-Day Weather Forecast

Advertisements
Track Severe Weather on mobile